• Join FlightAware (Why Join?)
  • Login
  • US Flag 
05:46PM EDT


 

Airport Tracker/Info


-or-


 

Live Flight TrackerFlight Track Log ✈ SWA378 ✈ 06-May-2013 ✈ KLAX - KATL

Flight Track Log - Related Links

Times and Time Zones

All times are in EDT time to prevent confusion due to time zone crossing. See the SWA378 flight status page for this flight to view local times or setup timezone preferences in your user account.

Time Position Orientation Groundspeed Altitude Reporting Facility
EDT Latitude Longitude Course Direction KTS MPH feet Rate Location/Type
01:47PM 33.9408 -118.3569 91° East 177 204 1,500  Level Los Angeles Center
01:49PM 33.9397 -118.2775 91° East 253 291 3,900 2,880 Climbing Los Angeles Center
01:50PM 33.9083 -118.1969 115° Southeast 263 303 7,500 3,060 Climbing Los Angeles Center
01:52PM 33.8272 -117.9900 115° Southeast 338 389 13,400 2,760 Climbing Los Angeles Center
01:53PM 33.7831 -117.8792 116° Southeast 363 418 16,100 1,920 Climbing Los Angeles Center
01:54PM 33.7575 -117.7453 103° East 421 484 17,400 1,560 Climbing Los Angeles Center
01:55PM 33.7414 -117.5947 97° East 453 521 19,400 1,980 Climbing Los Angeles Center
01:56PM 33.7239 -117.4367 98° East 474 545 21,500 1,860 Climbing Los Angeles Center
01:58PM 33.6817 -117.0658 98° East 519 597 25,300 1,680 Climbing Los Angeles Center
01:59PM 33.6622 -116.8908 98° East 529 609 26,900 1,620 Climbing Los Angeles Center
02:01PM 33.6196 -116.6401 98° East  Level FlightAware Approximate
02:02PM 33.5969 -116.3353 98° East 538 619 32,200  Level Los Angeles Center
02:03PM 33.5744 -116.1567 99° East 540 621 33,600 1,380 Climbing Los Angeles Center
02:04PM 33.5528 -115.9808 98° East 535 616 35,100 1,080 Climbing Los Angeles Center
02:06PM 33.5075 -115.6308 99° East 532 612 37,000 600 Climbing Los Angeles Center
02:07PM 33.4869 -115.4544 98° East 537 618 37,000  Level Los Angeles Center
02:08PM 33.4575 -115.2431 99° East 544 626 37,000  Level Los Angeles Center
02:10PM 33.4308 -115.0464 99° East  Level FlightAware Approximate
02:10PM 33.4136 -114.8911 99° East 540 621 37,000  Level Los Angeles Center
02:12PM 33.3661 -114.5444 99° East 533 613 37,000  Level Los Angeles Center
02:14PM 33.3389 -114.3636 100° East  Level FlightAware Approximate
02:14PM 33.3094 -114.1647 100° East 533 613 37,000  Level Los Angeles Center
02:15PM 33.2914 -113.9931 97° East 520 598 37,000  Level Los Angeles Center
02:16PM 33.2692 -113.8333 99° East 525 604 37,000  Level Albuquerque Center
02:18PM 33.2436 -113.6731 101° East  Level FlightAware Approximate
02:19PM 33.2189 -113.4800 101° East 521 600 37,000  Level Los Angeles Center
02:20PM 33.1900 -113.2889 100° East 530 610 37,000  Level Los Angeles Center
02:21PM 33.1664 -113.1189 99° East 522 601 37,000  Level Albuquerque Center
02:22PM 33.1403 -112.9472 100° East 525 604 37,000  Level Albuquerque Center
02:24PM 33.0892 -112.6103 100° East 523 602 37,000  Level Albuquerque Center
02:25PM 33.0592 -112.4125 100° East 521 600 37,000  Level Albuquerque Center
02:26PM 33.0325 -112.2408 100° East 519 597 37,000  Level Albuquerque Center
02:28PM 32.9747 -111.9685 100° East  Level FlightAware Approximate
02:29PM 32.9539 -111.7414 100° East 516 594 37,000  Level Albuquerque Center
02:31PM 32.9090 -111.4768 101° East  Level FlightAware Approximate
02:32PM 32.8683 -111.2128 101° East 513 590 37,000  Level Albuquerque Center
02:33PM 32.8422 -111.0483 101° East 510 587 37,000  Level Albuquerque Center
02:34PM 32.8156 -110.8825 101° East 511 588 37,000  Level Albuquerque Center
02:35PM 32.7867 -110.7189 102° East 510 587 37,000  Level Albuquerque Center
02:36PM 32.7592 -110.5539 101° East 510 587 37,000  Level Albuquerque Center
02:38PM 32.7138 -110.3219 103° East  Level FlightAware Approximate
02:38PM 32.6981 -110.1944 103° East 512 589 37,000  Level Albuquerque Center
02:40PM 32.6479 -109.9742 102° East  Level FlightAware Approximate
02:40PM 32.6381 -109.8683 102° East 510 587 37,000  Level Albuquerque Center
02:41PM 32.6114 -109.7053 101° East 510 587 37,000  Level Albuquerque Center
02:42PM 32.5800 -109.5411 103° East 516 594 37,000  Level Albuquerque Center
02:44PM 32.5397 -109.3347 103° East  Level FlightAware Approximate
02:45PM 32.4872 -109.0231 103° East 511 588 37,000  Level Albuquerque Center
02:46PM 32.4567 -108.8633 103° East 509 586 37,000  Level Albuquerque Center
02:47PM 32.4219 -108.6697 102° East 507 583 37,000  Level Albuquerque Center
02:49PM 32.3814 -108.4876 105° East  Level FlightAware Approximate
02:50PM 32.3303 -108.1839 103° East 504 580 37,000  Level Albuquerque Center
02:51PM 32.3319 -108.2791 103° East  Level FlightAware Approximate
02:51PM 32.3003 -108.0225 102° East 505 581 37,000  Level Albuquerque Center
02:52PM 32.2694 -107.8625 103° East 502 578 37,000  Level Albuquerque Center
02:54PM 32.2383 -107.7018 103° East  Level FlightAware Approximate
02:56PM 32.1834 -107.4319 103° East  Level FlightAware Approximate
02:56PM 32.1719 -107.3556 103° East 497 572 37,000  Level Albuquerque Center
02:58PM 32.1100 -107.0406 103° East 500 575 37,000  Level Albuquerque Center
03:00PM 32.1368 -106.7459 84° East  Level FlightAware Approximate
03:01PM 32.0288 -106.6502 103° East  Level FlightAware Approximate
03:02PM 32.1278 -106.3594 85° East 503 579 37,000  Level Albuquerque Center
03:03PM 32.1411 -106.1953 84° East 504 580 37,000  Level Albuquerque Center
03:04PM 32.1547 -106.0314 84° East 504 580 37,000  Level Albuquerque Center
03:05PM 32.1681 -105.8506 85° East 507 583 37,000  Level Albuquerque Center
03:06PM 32.1811 -105.6853 85° East 506 582 37,000  Level Albuquerque Center
03:07PM 32.2264 -105.6681 85° East  Level FlightAware Approximate
03:07PM 32.1961 -105.5186 84° East 509 586 37,000  Level Albuquerque Center
03:09PM 32.2206 -105.1844 85° East 510 587 37,000  Level Albuquerque Center
03:11PM 32.2458 -104.9412 83° East  Level FlightAware Approximate
03:11PM 32.2486 -104.8156 83° East 511 588 37,000  Level Albuquerque Center
03:12PM 32.2603 -104.6469 85° East 514 592 37,000  Level Albuquerque Center
03:14PM 32.2800 -104.3958 85° East 499 574 37,000  Level Fort Worth Center
03:14PM 32.2825 -104.3136 88° East 507 583 37,000  Level Albuquerque Center
03:16PM 32.3039 -103.9797 86° East 498 573 37,000  Level Albuquerque Center
03:19PM 32.3328 -103.5889 85° East 493 567 37,000  Level Fort Worth Center
03:19PM 32.3386 -103.4697 87° East 488 562 37,000  Level Albuquerque Center
03:20PM 32.3481 -103.3114 86° East 485 558 37,000  Level Albuquerque Center
03:21PM 32.3575 -103.1539 86° East 484 557 37,000  Level Albuquerque Center
03:22PM 32.3667 -102.9975 86° East 480 552 37,000  Level Albuquerque Center
03:24PM 32.3850 -102.6578 86° East 478 550 37,000  Level Albuquerque Center
03:25PM 32.3847 -102.6258 85° East 475 547 37,000  Level Fort Worth Center
03:26PM 32.3984 -102.4867 85° East  Level FlightAware Approximate
03:27PM 32.3997 -102.3044 87° East 481 554 37,000  Level Fort Worth Center
03:28PM 32.4103 -102.1428 86° East 481 554 37,000  Level Fort Worth Center
03:31PM 32.4771 -101.3835 86° East  Level FlightAware Approximate
03:34PM 32.4569 -101.1900 88° East 493 567 37,000  Level Fort Worth Center
03:35PM 32.4619 -101.0278 88° East 488 562 37,000  Level Fort Worth Center
03:36PM 32.4683 -100.8681 87° East 488 562 37,000  Level Fort Worth Center
03:38PM 32.5104 -100.3060 88° East  Level FlightAware Approximate
03:38PM 32.4811 -100.5483 87° East 483 556 37,000  Level Fort Worth Center
03:39PM 32.5140 -100.1520 88° East  Level FlightAware Approximate
03:39PM 32.4869 -100.3911 87° East 478 550 37,000  Level Fort Worth Center
03:40PM 32.4906 -100.2311 88° East 478 550 37,000  Level Fort Worth Center
03:41PM 32.4961 -100.0711 88° East 478 550 37,000  Level Fort Worth Center
03:43PM 32.5245 -99.7739 88° East  Level FlightAware Approximate
03:44PM 32.5119 -99.5839 88° East 488 562 37,000  Level Fort Worth Center
03:45PM 32.5186 -99.4214 87° East 488 562 37,000  Level Fort Worth Center
03:47PM 32.5278 -99.0989 88° East 493 567 37,000  Level Fort Worth Center
03:48PM 32.5317 -98.9386 88° East 493 567 37,000  Level Fort Worth Center
03:49PM 32.5358 -98.7786 88° East 493 567 37,000  Level Fort Worth Center
03:51PM 32.5431 -98.4558 88° East 493 567 37,000  Level Fort Worth Center
03:52PM 32.5464 -98.2783 89° East 488 562 37,000  Level Fort Worth Center
03:53PM 32.5494 -98.1331 89° East 494 568 37,000  Level Fort Worth Center
03:54PM 32.5544 -97.9531 88° East 494 568 37,000  Level Fort Worth Center
03:55PM 32.5550 -97.7881 90° East 494 568 37,000  Level Fort Worth Center
03:56PM 32.5575 -97.6278 89° East 494 568 37,000  Level Fort Worth Center
03:58PM 32.5619 -97.2975 89° East 493 567 37,000  Level Fort Worth Center
03:59PM 32.5639 -97.1325 89° East 500 575 37,000  Level Fort Worth Center
04:00PM 32.5675 -96.9672 88° East 494 568 37,000  Level Fort Worth Center
04:02PM 32.5681 -96.6369 90° East 494 568 37,000  Level Fort Worth Center
04:04PM 32.5697 -96.3189 90° East 494 568 37,000  Level Fort Worth Center
04:05PM 32.5703 -96.1389 90° East 494 568 37,000  Level Fort Worth Center
04:06PM 32.5706 -95.9886 90° East 494 568 37,000  Level Fort Worth Center
04:07PM 32.5706 -95.8111 90° East 494 568 37,000  Level Fort Worth Center
04:08PM 32.5728 -95.6606 89° East 494 568 37,000  Level Fort Worth Center
04:10PM 32.5770 -95.3625 89° East  Level FlightAware Approximate
04:11PM 32.5667 -95.1431 89° East 499 574 37,000  Level Fort Worth Center
04:12PM 32.5656 -94.9756 90° East 493 567 37,000  Level Fort Worth Center
04:13PM 32.5644 -94.8128 90° East 493 567 37,000  Level Fort Worth Center
04:14PM 32.5631 -94.6453 91° East 493 567 37,000  Level Fort Worth Center
04:16PM 32.5614 -94.3150 90° East 498 573 37,000  Level Fort Worth Center
04:18PM 32.5567 -94.0170 91° East  Level FlightAware Approximate
04:19PM 32.5544 -93.8150 91° East 498 573 37,000  Level Fort Worth Center
04:20PM 32.5539 -93.6500 90° East 498 573 37,000  Level Fort Worth Center
04:22PM 32.5475 -93.3125 91° East 503 579 37,000  Level Fort Worth Center
04:24PM 32.5369 -93.0135 92° East  Level FlightAware Approximate
04:25PM 32.5406 -92.8153 92° East 498 573 37,000  Level Fort Worth Center
04:26PM 32.5367 -92.6528 92° East 498 573 37,000  Level Fort Worth Center
04:28PM 32.5253 -92.3014 92° East 490 564 37,000  Level Memphis Center
04:30PM 32.5136 -91.9561 92° East 502 578 37,000  Level Memphis Center
04:32PM 32.5051 -91.6984 92° East  Level FlightAware Approximate
04:32PM 32.4986 -91.6233 92° East 497 572 37,000  Level Memphis Center
04:33PM 32.4961 -91.4533 91° East 497 572 37,000  Level Memphis Center
04:34PM 32.4889 -91.2883 93° East 497 572 37,000  Level Memphis Center
04:35PM 32.4839 -91.1208 92° East 497 572 37,000  Level Memphis Center
04:37PM 32.4730 -90.8633 93° East  Level FlightAware Approximate
04:37PM 32.4708 -90.7858 93° East 502 578 37,000  Level Memphis Center
04:38PM 32.4650 -90.6331 93° East 502 578 37,000  Level Memphis Center
04:39PM 32.4589 -90.4681 92° East 502 578 37,000  Level Memphis Center
04:41PM 32.4445 -90.2109 94° East  Level FlightAware Approximate
04:43PM 32.4306 -89.7961 93° East 507 583 37,000  Level Memphis Center
04:45PM 32.4919 -89.5488 74° East  Level Estimated
04:46PM 32.4064 -89.2992 74° East 507 583 37,000  Level Memphis Center
04:47PM 32.3967 -89.1344 94° East 502 578 37,000  Level Memphis Center
04:48PM 32.3860 -89.1308 93° East  Level FlightAware Approximate
04:48PM 32.3883 -88.9500 93° East 502 578 37,000  Level Memphis Center
04:50PM 32.3950 -88.6558 88° East 503 579 37,000  Level Atlanta Center
04:52PM 32.4361 -88.3258 82° East 498 573 37,000  Level Atlanta Center
04:53PM 32.4564 -88.1594 82° East 498 573 37,000  Level Atlanta Center
04:54PM 32.4867 -87.9983 77° East 498 573 37,000  Level Atlanta Center
04:55PM 32.5211 -87.8325 76° East 505 581 37,000 -540 Level Atlanta Center
04:56PM 32.5572 -87.6714 75° East 505 581 36,000 -960 Descending Atlanta Center
04:58PM 32.5527 -87.3876 91° East  Level FlightAware Approximate
04:59PM 32.6558 -87.1967 91° East 500 575 33,200  Level Atlanta Center
05:00PM 32.6892 -87.0325 76° East 495 570 32,100 -1,980 Descending Atlanta Center
05:01PM 32.7203 -86.8708 77° East 500 575 29,300 -2,820 Descending Atlanta Center
05:02PM 32.7550 -86.7089 76° East 500 575 26,500 -1,440 Descending Atlanta Center
05:04PM 32.8136 -86.4017 77° East 487 560 25,000 -540 Descending Atlanta Center
05:06PM 32.8658 -86.1159 77° East  Level FlightAware Approximate
05:07PM 32.7794 -85.9633 77° East 437 503 24,000  Level Atlanta Center
05:09PM 32.8705 -85.6917 68° East  Level FlightAware Approximate
05:12PM 33.0069 -85.3219 49° Northeast 416 479 20,300  Level Atlanta Center
05:14PM 33.1333 -85.1000 56° Northeast 398 458 15,700 -1,800 Descending Atlanta TRACON
05:16PM 33.3714 -84.7548 48° Northeast  Level FlightAware Approximate
05:16PM 33.2667 -84.9167 49° Northeast 381 438 13,400  Level Atlanta TRACON
05:17PM 33.4600 -84.6343 49° Northeast  Level FlightAware Approximate
05:17PM 33.3500 -84.8167 45° Northeast 376 433 12,400  Level Atlanta TRACON
05:18PM 33.4061 -84.7356 50° Northeast 373 429 12,000 -240 Descending Atlanta Center
05:19PM 33.4714 -84.6489 48° Northeast 356 410 12,000 -60 Level Atlanta Center
05:20PM 33.5333 -84.5667 48° Northeast 290 334 11,900 -1,680 Descending Atlanta TRACON
05:22PM 33.5500 -84.3833 84° East 278 320 7,300 -2,580 Descending Atlanta TRACON
05:23PM 33.5500 -84.2833 90° East 258 297 4,200 -1,380 Descending Atlanta TRACON
05:25PM 33.6167 -84.2167 40° Northeast 194 223 3,100 -420 Descending Atlanta TRACON
05:27PM 33.6333 -84.3167 281° West 160 184 2,700 -480 Descending Atlanta TRACON
05:28PM 33.6333 -84.3833 270° West 146 168 1,700 -960 Descending Atlanta TRACON
05:30PM 33.6333 -84.4167 301° West  Level FlightAware Approximate
05:37PM 33.6367 -84.4279 301° West  Level Estimated
05:38PM 33.6367 -84.4279 301° West  Level Estimated